Chandler, Indiana
Current Conditions -  °F | °C
As of 1:54 PM on Thursday 23 Oct 2014 (Local Time) from KEVV Reporting Station
Clear Clear  
Wind Chill: 60°   Ceiling: Unl
Heat Index: 60°   Visibility: 10mi
Dew Point: 42°   Wind: 3mph
Humidity: 51%   Direction: 130°SE
Pressure: 30.17"   Gusts: NA
Location:  38.04°N, 87.37°W
Report Text: KEVV 231854Z 13003KT 10SM CLR 16/06 A3017 RMK AO2 SLP218 T01560056 $
Loading
Personal Weather Stations






























Interactive Weather Map
Tropical Storm Tracking
New forecast layout! Learn more

10-Day Weather Forecast

Advertisements
Track Severe Weather on mobile